createdAt,value
2023-05-16T00:01:58.508Z,2.40
2023-05-16T00:04:46.210Z,2.87
2023-05-16T00:07:34.445Z,2.63
2023-05-16T00:10:22.127Z,3.10
2023-05-16T00:13:08.506Z,2.93
2023-05-16T00:15:55.418Z,3.00
2023-05-16T00:18:41.939Z,3.23
2023-05-16T00:21:28.291Z,3.03
2023-05-16T00:24:15.138Z,2.80
2023-05-16T00:27:03.960Z,2.97
2023-05-16T00:29:50.294Z,3.23
2023-05-16T00:32:37.180Z,3.10
2023-05-16T00:35:23.528Z,3.20
2023-05-16T00:38:09.859Z,3.47
2023-05-16T00:40:56.239Z,3.00
2023-05-16T00:43:44.155Z,2.40
2023-05-16T00:46:30.909Z,3.20
2023-05-16T00:49:17.587Z,2.83
2023-05-16T00:52:04.972Z,3.10
2023-05-16T00:54:52.058Z,2.97
2023-05-16T00:57:38.977Z,3.70
2023-05-16T01:00:27.324Z,3.43
2023-05-16T01:03:13.970Z,3.13
2023-05-16T01:06:00.954Z,3.17
2023-05-16T01:08:47.589Z,3.13
2023-05-16T01:11:37.213Z,3.47
2023-05-16T01:14:26.942Z,2.97
2023-05-16T01:17:21.505Z,2.97
2023-05-16T01:20:15.161Z,3.33
2023-05-16T01:23:06.332Z,2.93
2023-05-16T01:25:58.379Z,2.93
2023-05-16T01:28:47.829Z,2.90
2023-05-16T01:31:34.352Z,3.63
2023-05-16T01:34:20.719Z,3.30
2023-05-16T01:37:11.136Z,2.97
2023-05-16T01:39:59.084Z,4.00
2023-05-16T01:42:46.815Z,3.17
2023-05-16T01:45:36.024Z,3.10
2023-05-16T01:48:24.156Z,3.03
2023-05-16T01:51:12.232Z,3.00
2023-05-16T01:54:01.474Z,3.20
2023-05-16T01:56:51.083Z,3.50
2023-05-16T01:59:38.144Z,3.27
2023-05-16T02:02:25.927Z,3.23
2023-05-16T02:05:12.235Z,2.77
2023-05-16T02:07:58.417Z,3.10
2023-05-16T02:10:44.827Z,3.00
2023-05-16T02:13:31.382Z,3.37
2023-05-16T02:16:17.767Z,3.37
2023-05-16T02:19:06.215Z,4.00
2023-05-16T02:21:52.952Z,3.20
2023-05-16T02:24:39.059Z,3.17
2023-05-16T02:27:25.451Z,3.33
2023-05-16T02:30:12.391Z,2.97
2023-05-16T02:32:59.069Z,2.90
2023-05-16T02:35:46.821Z,3.30
2023-05-16T02:38:33.396Z,3.00
2023-05-16T02:41:21.327Z,3.27
2023-05-16T02:44:07.853Z,2.80
2023-05-16T02:46:54.273Z,3.10
2023-05-16T02:49:40.558Z,3.27
2023-05-16T02:52:28.255Z,3.20
2023-05-16T02:58:04.130Z,3.17
2023-05-16T03:00:50.685Z,3.17
2023-05-16T03:03:37.710Z,3.60
2023-05-16T03:06:24.410Z,3.67
2023-05-16T03:09:11.906Z,3.27
2023-05-16T03:11:59.576Z,3.53
2023-05-16T03:14:45.813Z,4.33
2023-05-16T03:17:32.360Z,4.00
2023-05-16T03:20:19.281Z,2.97
2023-05-16T03:23:07.750Z,3.00
2023-05-16T03:25:56.213Z,3.33
2023-05-16T03:28:42.634Z,2.80
2023-05-16T03:31:29.046Z,4.87
2023-05-16T03:34:15.673Z,3.57
2023-05-16T03:37:01.804Z,3.30
2023-05-16T03:39:48.309Z,2.90
2023-05-16T03:42:36.063Z,3.27
2023-05-16T03:45:22.380Z,3.47
2023-05-16T03:48:09.852Z,3.27
2023-05-16T03:50:56.259Z,3.10
2023-05-16T03:53:42.716Z,3.90
2023-05-16T03:56:29.454Z,3.10
2023-05-16T03:59:17.426Z,3.53
2023-05-16T04:02:03.952Z,2.90
2023-05-16T04:04:50.510Z,3.27
2023-05-16T04:07:37.285Z,3.43
2023-05-16T04:11:20.148Z,3.90
2023-05-16T04:14:14.447Z,3.40
2023-05-16T04:17:02.665Z,3.57
2023-05-16T04:19:49.194Z,3.10
2023-05-16T04:22:35.595Z,3.60
2023-05-16T04:25:21.957Z,3.00
2023-05-16T04:28:08.207Z,2.63
2023-05-16T04:30:54.497Z,3.00
2023-05-16T04:33:42.339Z,3.40
2023-05-16T04:36:30.362Z,3.27
2023-05-16T04:39:17.307Z,2.87
2023-05-16T04:42:04.302Z,2.97
2023-05-16T04:44:51.774Z,3.10
2023-05-16T04:47:38.197Z,3.33
2023-05-16T04:50:26.357Z,2.93
2023-05-16T04:53:15.070Z,3.00
2023-05-16T04:56:01.707Z,2.83
2023-05-16T04:58:48.247Z,2.83
2023-05-16T05:01:34.847Z,2.90
2023-05-16T05:04:21.205Z,3.27
2023-05-16T05:07:09.483Z,3.40
2023-05-16T05:09:56.239Z,3.53
2023-05-16T05:12:43.107Z,2.73
2023-05-16T05:15:29.838Z,3.27
2023-05-16T05:18:16.652Z,3.83
2023-05-16T05:21:03.257Z,3.37
2023-05-16T05:23:50.913Z,2.97
2023-05-16T05:26:37.538Z,3.03
2023-05-16T05:29:24.268Z,3.03
2023-05-16T05:32:10.852Z,3.33
2023-05-16T05:34:57.082Z,4.10
2023-05-16T05:37:43.826Z,3.87
2023-05-16T05:40:31.544Z,3.63
2023-05-16T05:43:18.026Z,2.87
2023-05-16T05:46:05.012Z,3.50
2023-05-16T05:48:51.486Z,3.40
2023-05-16T05:51:37.792Z,3.27
2023-05-16T05:54:24.429Z,3.13
2023-05-16T05:57:11.827Z,3.20
2023-05-16T05:59:58.564Z,2.97
2023-05-16T06:02:45.107Z,2.93
2023-05-16T06:05:31.601Z,2.87
2023-05-16T06:08:18.355Z,3.10
2023-05-16T06:11:06.701Z,2.80
2023-05-16T06:13:54.316Z,3.00
2023-05-16T06:16:40.981Z,2.80
2023-05-16T06:19:27.718Z,3.00
2023-05-16T06:22:14.202Z,3.03
2023-05-16T06:25:00.480Z,3.17
2023-05-16T06:27:47.162Z,2.83
2023-05-16T06:30:35.041Z,3.13
2023-05-16T06:33:21.626Z,3.50
2023-05-16T06:36:08.259Z,4.17
2023-05-16T06:38:54.822Z,3.23
2023-05-16T06:41:41.044Z,3.47
2023-05-16T06:44:27.779Z,3.40
2023-05-16T06:47:15.620Z,2.87
2023-05-16T06:50:01.894Z,3.80
2023-05-16T06:52:48.343Z,3.20
2023-05-16T06:55:34.781Z,3.90
2023-05-16T06:58:21.702Z,4.00
2023-05-16T07:01:08.258Z,3.80
2023-05-16T07:03:56.174Z,3.53
2023-05-16T07:06:42.917Z,4.03
2023-05-16T07:09:29.407Z,3.00
2023-05-16T07:12:16.179Z,3.87
2023-05-16T07:15:02.767Z,3.60
2023-05-16T07:17:50.956Z,3.63
2023-05-16T07:20:38.647Z,3.83
2023-05-16T07:23:25.382Z,3.20
2023-05-16T07:26:11.918Z,3.33
2023-05-16T07:28:58.759Z,3.37
2023-05-16T07:31:48.723Z,3.63
2023-05-16T07:34:35.203Z,2.90
2023-05-16T07:37:23.129Z,3.70
2023-05-16T07:40:10.088Z,4.23
2023-05-16T07:42:56.905Z,3.10
2023-05-16T07:45:43.935Z,3.53
2023-05-16T07:48:30.488Z,3.50
2023-05-16T07:51:16.884Z,3.43
2023-05-16T07:54:04.947Z,4.63
2023-05-16T07:56:51.431Z,4.27
2023-05-16T07:59:38.066Z,4.27
2023-05-16T08:02:26.440Z,4.27
2023-05-16T08:05:12.902Z,4.07
2023-05-16T08:07:59.395Z,4.27
2023-05-16T08:10:47.511Z,4.60
2023-05-16T08:13:33.832Z,4.10
2023-05-16T08:16:20.178Z,3.77
2023-05-16T08:19:06.859Z,4.43
2023-05-16T08:21:53.537Z,3.87
2023-05-16T08:24:40.456Z,4.73
2023-05-16T08:27:28.633Z,4.70
2023-05-16T08:30:15.587Z,3.77
2023-05-16T08:33:05.104Z,4.53
2023-05-16T08:35:53.415Z,4.97
2023-05-16T08:38:39.879Z,3.93
2023-05-16T08:41:26.245Z,4.57
2023-05-16T08:44:21.251Z,4.03
2023-05-16T08:47:12.187Z,4.20
2023-05-16T08:49:59.599Z,3.20
2023-05-16T08:52:48.570Z,3.80
2023-05-16T08:55:36.164Z,3.30
2023-05-16T08:58:22.521Z,4.80
2023-05-16T09:01:10.858Z,3.80
2023-05-16T09:03:57.709Z,4.40
2023-05-16T09:06:44.246Z,4.00
2023-05-16T09:09:31.414Z,4.70
2023-05-16T09:12:18.235Z,4.63
2023-05-16T09:15:05.136Z,4.40
2023-05-16T09:17:53.208Z,3.53
2023-05-16T09:20:46.685Z,4.00
2023-05-16T09:23:36.952Z,3.60
2023-05-16T09:26:23.691Z,3.33
2023-05-16T09:29:13.867Z,3.97
2023-05-16T09:32:06.304Z,3.77
2023-05-16T09:34:54.688Z,3.60
2023-05-16T09:37:45.220Z,4.10
2023-05-16T09:40:31.997Z,4.00
2023-05-16T09:43:19.006Z,4.37
2023-05-16T09:46:05.542Z,3.90
2023-05-16T09:48:53.031Z,3.63
2023-05-16T09:51:41.858Z,4.00
2023-05-16T09:54:32.828Z,4.10
2023-05-16T09:57:19.702Z,4.13
2023-05-16T10:00:08.446Z,3.90
2023-05-16T10:02:58.307Z,4.37
2023-05-16T10:05:45.612Z,4.27
2023-05-16T10:08:36.421Z,4.67
2023-05-16T10:11:23.205Z,4.17
2023-05-16T10:14:13.596Z,4.50
2023-05-16T10:17:00.085Z,4.37
2023-05-16T10:19:46.974Z,4.33
2023-05-16T10:22:35.734Z,4.17
2023-05-16T10:25:27.286Z,4.30
2023-05-16T10:28:14.706Z,4.67
2023-05-16T10:31:02.857Z,4.47
2023-05-16T10:33:50.570Z,4.40
2023-05-16T10:36:37.637Z,4.50
2023-05-16T10:39:24.530Z,4.83
2023-05-16T10:42:14.441Z,5.30
2023-05-16T10:45:10.717Z,5.03
2023-05-16T10:47:57.949Z,5.10
2023-05-16T10:50:45.818Z,5.00
2023-05-16T10:53:33.371Z,3.53
2023-05-16T10:56:23.644Z,4.00
2023-05-16T10:59:26.244Z,4.10
2023-05-16T11:02:26.664Z,3.80
2023-05-16T11:05:14.769Z,3.50
2023-05-16T11:08:05.627Z,3.90
2023-05-16T11:10:52.344Z,3.53
2023-05-16T11:13:54.934Z,4.10
2023-05-16T11:16:42.982Z,4.47
2023-05-16T11:19:33.531Z,3.83
2023-05-16T11:22:24.189Z,3.30
2023-05-16T11:25:11.085Z,3.70
2023-05-16T11:27:57.863Z,3.67
2023-05-16T11:30:44.571Z,3.37
2023-05-16T11:33:35.614Z,3.80
2023-05-16T11:36:22.561Z,3.37
2023-05-16T11:39:10.498Z,3.57
2023-05-16T11:41:57.117Z,3.03
2023-05-16T11:44:43.440Z,3.37
2023-05-16T11:47:29.946Z,3.83
2023-05-16T11:50:18.467Z,3.27
2023-05-16T11:53:05.036Z,3.73
2023-05-16T11:55:55.753Z,3.50
2023-05-16T11:58:42.666Z,3.20
2023-05-16T12:01:33.130Z,3.30
2023-05-16T12:04:20.754Z,3.03
2023-05-16T12:07:08.981Z,3.13
2023-05-16T12:09:55.553Z,3.30
2023-05-16T12:12:42.498Z,3.03
2023-05-16T12:15:29.598Z,2.90
2023-05-16T12:18:17.040Z,3.50
2023-05-16T12:21:03.509Z,3.60
2023-05-16T12:23:51.650Z,3.00
2023-05-16T12:26:40.808Z,2.70
2023-05-16T12:29:27.242Z,3.43
2023-05-16T12:32:13.793Z,4.40
2023-05-16T12:35:02.642Z,3.47
2023-05-16T12:37:50.389Z,2.87
2023-05-16T12:40:40.184Z,3.50
2023-05-16T12:43:27.876Z,3.30
2023-05-16T12:46:14.532Z,2.97
2023-05-16T12:49:02.915Z,2.97
2023-05-16T12:51:50.292Z,3.10
2023-05-16T12:54:36.618Z,2.80
2023-05-16T12:57:24.447Z,3.10
2023-05-16T13:00:12.221Z,2.83
2023-05-16T13:02:58.762Z,3.23
2023-05-16T13:05:45.264Z,2.60
2023-05-16T13:08:31.827Z,3.13
2023-05-16T13:11:19.147Z,3.80
2023-05-16T13:14:06.847Z,3.70
2023-05-16T13:16:53.526Z,3.53
2023-05-16T13:19:40.586Z,2.83
2023-05-16T13:22:27.139Z,3.70
2023-05-16T13:25:16.198Z,3.20
2023-05-16T13:28:02.451Z,3.00
2023-05-16T13:30:50.148Z,3.27
2023-05-16T13:33:37.778Z,3.60
2023-05-16T13:36:25.459Z,3.57
2023-05-16T13:39:13.017Z,4.10
2023-05-16T13:42:00.034Z,3.40
2023-05-16T13:44:46.352Z,3.67
2023-05-16T13:47:34.066Z,4.50
2023-05-16T13:50:20.697Z,7.60
2023-05-16T13:53:07.113Z,6.97
2023-05-16T13:55:54.493Z,4.90
2023-05-16T13:58:59.179Z,3.00
2023-05-16T14:01:47.486Z,3.53
2023-05-16T14:04:35.397Z,3.37
2023-05-16T14:07:21.906Z,2.90
2023-05-16T14:10:08.867Z,3.10
2023-05-16T14:12:55.115Z,3.27
2023-05-16T14:15:41.781Z,2.90
2023-05-16T14:18:28.463Z,3.10
2023-05-16T14:21:16.420Z,2.67
2023-05-16T14:24:03.225Z,2.90
2023-05-16T14:26:49.647Z,3.13
2023-05-16T14:29:36.234Z,3.53
2023-05-16T14:32:23.053Z,3.00
2023-05-16T14:35:10.659Z,3.10
2023-05-16T14:41:09.288Z,2.33
2023-05-16T14:43:56.264Z,3.10
2023-05-16T14:46:43.121Z,3.00
2023-05-16T14:49:29.461Z,2.40
2023-05-16T14:52:15.953Z,3.40
2023-05-16T14:55:04.266Z,2.37
2023-05-16T14:57:59.645Z,2.70
2023-05-16T15:00:46.353Z,2.83
2023-05-16T15:03:46.904Z,2.60
2023-05-16T15:06:40.781Z,3.20
2023-05-16T15:09:29.225Z,2.50
2023-05-16T15:12:16.986Z,2.67
2023-05-16T15:15:03.328Z,2.60
2023-05-16T15:17:50.314Z,2.33
2023-05-16T15:20:36.919Z,2.70
2023-05-16T15:23:24.743Z,2.80
2023-05-16T15:26:11.333Z,2.67
2023-05-16T15:28:59.315Z,3.20
2023-05-16T15:31:45.776Z,2.53
2023-05-16T15:34:32.140Z,3.53
2023-05-16T15:37:18.904Z,3.20
2023-05-16T15:40:05.868Z,2.60
2023-05-16T15:42:52.362Z,3.23
2023-05-16T15:45:40.625Z,2.87
2023-05-16T15:48:27.537Z,2.40
2023-05-16T15:51:16.433Z,3.37
2023-05-16T15:54:02.864Z,2.27
2023-05-16T15:56:49.062Z,2.27
2023-05-16T15:59:35.787Z,2.20
2023-05-16T16:02:23.517Z,2.90
2023-05-16T16:05:10.287Z,2.77
2023-05-16T16:07:56.708Z,2.37
2023-05-16T16:10:43.042Z,2.20
2023-05-16T16:13:29.123Z,2.50
2023-05-16T16:16:16.241Z,2.50
2023-05-16T16:19:04.099Z,2.97
2023-05-16T16:21:50.897Z,2.80
2023-05-16T16:24:37.459Z,3.23
2023-05-16T16:27:23.849Z,2.87
2023-05-16T16:30:10.888Z,2.63
2023-05-16T16:32:57.181Z,2.90
2023-05-16T16:35:44.981Z,3.17
2023-05-16T16:38:31.198Z,4.77
2023-05-16T16:41:17.701Z,5.93
2023-05-16T16:44:04.675Z,3.93
2023-05-16T16:46:51.491Z,3.53
2023-05-16T16:49:38.410Z,3.13
2023-05-16T16:52:26.609Z,3.00
2023-05-16T16:55:14.918Z,3.17
2023-05-16T16:58:02.443Z,2.80
2023-05-16T17:00:49.227Z,3.90
2023-05-16T17:03:36.333Z,3.00
2023-05-16T17:06:23.385Z,3.57
2023-05-16T17:09:13.908Z,2.60
2023-05-16T17:12:04.929Z,2.50
2023-05-16T17:14:53.628Z,3.00
2023-05-16T17:17:40.397Z,3.83
2023-05-16T17:20:27.070Z,3.03
2023-05-16T17:23:13.690Z,2.90
2023-05-16T17:26:01.555Z,4.93
2023-05-16T17:28:48.459Z,4.37
2023-05-16T17:31:35.194Z,3.93
2023-05-16T17:34:22.027Z,4.50
2023-05-16T17:37:10.662Z,3.10
2023-05-16T17:39:57.649Z,3.93
2023-05-16T17:42:45.863Z,4.70
2023-05-16T17:45:32.596Z,4.07
2023-05-16T17:48:19.136Z,5.37
2023-05-16T17:51:06.719Z,7.33
2023-05-16T17:53:53.087Z,7.57
2023-05-16T17:56:39.691Z,8.37
2023-05-16T17:59:28.438Z,7.97
2023-05-16T18:02:16.454Z,6.47
2023-05-16T18:05:02.754Z,8.93
2023-05-16T18:07:48.963Z,8.93
2023-05-16T18:10:50.489Z,7.63
2023-05-16T18:13:38.432Z,5.43
2023-05-16T18:16:26.725Z,4.27
2023-05-16T18:19:13.305Z,5.93
2023-05-16T18:22:01.112Z,4.93
2023-05-16T18:24:47.801Z,4.90
2023-05-16T18:27:34.289Z,3.97
2023-05-16T18:30:21.036Z,4.27
2023-05-16T18:33:08.544Z,5.03
2023-05-16T18:35:54.977Z,6.57
2023-05-16T18:38:41.609Z,6.83
2023-05-16T18:41:28.315Z,5.77
2023-05-16T18:44:17.243Z,5.17
2023-05-16T18:47:04.006Z,4.93
2023-05-16T18:49:52.666Z,4.43
2023-05-16T18:55:27.026Z,4.03
2023-05-16T18:58:13.440Z,5.07
2023-05-16T19:00:59.979Z,4.60
2023-05-16T19:03:46.741Z,3.70
2023-05-16T19:06:34.596Z,3.40
2023-05-16T19:09:21.247Z,3.63
2023-05-16T19:12:07.787Z,3.87
2023-05-16T19:14:55.906Z,3.60
2023-05-16T19:17:42.514Z,3.83
2023-05-16T19:20:29.449Z,4.53
2023-05-16T19:23:17.341Z,4.60
2023-05-16T19:26:04.139Z,3.40
2023-05-16T19:28:52.162Z,3.60
2023-05-16T19:31:38.596Z,4.43
2023-05-16T19:34:26.743Z,4.23
2023-05-16T19:37:13.340Z,4.13
2023-05-16T19:40:01.027Z,3.10
2023-05-16T19:42:47.677Z,3.80
2023-05-16T19:45:34.382Z,3.47
2023-05-16T19:48:22.873Z,3.90
2023-05-16T19:51:09.964Z,3.30
2023-05-16T19:53:56.448Z,4.00
2023-05-16T19:56:44.037Z,3.93
2023-05-16T19:59:34.502Z,4.40
2023-05-16T20:02:23.537Z,3.53
2023-05-16T20:05:11.450Z,3.40
2023-05-16T20:07:57.903Z,4.27
2023-05-16T20:10:44.477Z,3.47
2023-05-16T20:13:32.184Z,3.50
2023-05-16T20:16:20.717Z,3.47
2023-05-16T20:19:07.179Z,2.93
2023-05-16T20:21:54.273Z,3.90
2023-05-16T20:24:41.123Z,3.57
2023-05-16T20:27:27.691Z,3.10
2023-05-16T20:30:16.720Z,2.87
2023-05-16T20:33:03.444Z,2.40
2023-05-16T20:35:50.182Z,2.80
2023-05-16T20:38:38.128Z,2.90
2023-05-16T20:41:24.598Z,2.57
2023-05-16T20:44:11.434Z,2.90
2023-05-16T20:46:59.460Z,3.10
2023-05-16T20:49:45.817Z,3.67
2023-05-16T20:52:32.218Z,2.80
2023-05-16T20:55:18.560Z,2.90
2023-05-16T20:58:05.248Z,2.30
2023-05-16T21:00:51.820Z,2.70
2023-05-16T21:03:39.485Z,2.47
2023-05-16T21:06:25.787Z,2.80
2023-05-16T21:09:11.901Z,2.80
2023-05-16T21:11:58.925Z,3.00
2023-05-16T21:14:46.729Z,3.13
2023-05-16T21:17:33.413Z,3.67
2023-05-16T21:20:21.120Z,4.40
2023-05-16T21:23:07.677Z,3.50
2023-05-16T21:25:54.038Z,3.17
2023-05-16T21:28:54.090Z,3.23
2023-05-16T21:31:41.955Z,3.00
2023-05-16T21:34:28.923Z,2.90
2023-05-16T21:37:17.009Z,3.10
2023-05-16T21:40:03.777Z,3.43
2023-05-16T21:42:49.929Z,2.80
2023-05-16T21:45:36.681Z,2.97
2023-05-16T21:48:23.153Z,4.00
2023-05-16T21:51:11.039Z,4.00
2023-05-16T21:53:58.811Z,3.77
2023-05-16T21:56:45.744Z,3.90
2023-05-16T21:59:32.175Z,4.60
2023-05-16T22:02:22.851Z,4.00
2023-05-16T22:05:09.614Z,5.20
2023-05-16T22:07:56.092Z,4.83
2023-05-16T22:10:43.727Z,3.00
2023-05-16T22:13:30.219Z,3.47
2023-05-16T22:16:16.589Z,3.10
2023-05-16T22:19:03.456Z,3.93
2023-05-16T22:21:50.283Z,3.67
2023-05-16T22:24:36.784Z,3.30
2023-05-16T22:27:24.540Z,3.13
2023-05-16T22:30:11.453Z,2.80
2023-05-16T22:32:57.772Z,2.90
2023-05-16T22:35:44.175Z,3.17
2023-05-16T22:38:31.949Z,2.67
2023-05-16T22:41:18.571Z,2.70
2023-05-16T22:44:06.664Z,2.97
2023-05-16T22:46:52.994Z,4.03
2023-05-16T22:49:39.477Z,3.30
2023-05-16T22:52:25.987Z,3.77
2023-05-16T22:55:12.652Z,3.30
2023-05-16T22:58:00.746Z,3.10
2023-05-16T23:00:48.328Z,2.20
2023-05-16T23:03:35.187Z,2.20
2023-05-16T23:06:21.691Z,3.00
2023-05-16T23:09:08.006Z,2.60
2023-05-16T23:11:57.201Z,3.70
2023-05-16T23:14:44.978Z,3.13
2023-05-16T23:17:32.781Z,3.60
2023-05-16T23:20:19.266Z,3.97
2023-05-16T23:23:06.056Z,3.40
2023-05-16T23:25:52.343Z,3.10
2023-05-16T23:28:40.802Z,3.57
2023-05-16T23:31:27.147Z,3.90
2023-05-16T23:34:15.307Z,3.37
2023-05-16T23:37:01.928Z,3.90
2023-05-16T23:39:48.600Z,4.73
2023-05-16T23:42:36.798Z,4.53
2023-05-16T23:45:23.708Z,5.23
2023-05-16T23:48:10.511Z,5.17
2023-05-16T23:50:58.782Z,4.77
2023-05-16T23:53:45.167Z,5.43
2023-05-16T23:56:31.609Z,6.10
2023-05-16T23:59:19.202Z,4.50
